Time;durP1;ratioP1;P1;durP2;ratioP2;P2;SDS_P1;SDS_P2;PMS_P1;PMS_P2;Temp;Humidity;BMP_temperature;BMP_pressure;BME280_temperature;BME280_humidity;BME280_pressure;Samples;Min_cycle;Max_cycle;Signal;HPM_P1;HPM_P2
2023/05/02 00:00:27;;;;;;;6.43;3.78;;;;;;;7.52;58.62;101718.94;5000787;28;20033;-76
2023/05/02 00:02:52;;;;;;;5.70;2.53;;;;;;;7.55;58.82;101718.91;4998347;28;20045;-73
2023/05/02 00:05:18;;;;;;;6.45;3.15;;;;;;;7.77;58.44;101718.63;5005247;28;20482;-75
2023/05/02 00:07:43;;;;;;;5.63;2.78;;;;;;;7.62;58.47;101730.94;5003770;28;20041;-76
2023/05/02 00:10:09;;;;;;;5.30;2.35;;;;;;;7.70;57.89;101729.13;5002617;28;20445;-75
2023/05/02 00:12:35;;;;;;;5.63;2.45;;;;;;;7.46;58.69;101729.41;4984899;28;20042;-72
2023/05/02 00:15:01;;;;;;;6.15;1.35;;;;;;;7.24;59.01;101734.88;5004336;28;20029;-74
2023/05/02 00:17:26;;;;;;;7.93;1.48;;;;;;;7.53;58.49;101738.84;4996753;28;20523;-70
2023/05/02 00:19:52;;;;;;;6.13;0.85;;;;;;;7.10;59.23;101753.25;4998850;28;20037;-73
2023/05/02 00:22:17;;;;;;;2.85;0.68;;;;;;;7.19;58.59;101754.88;5002158;28;20052;-72
2023/05/02 00:24:43;;;;;;;2.88;1.23;;;;;;;7.14;58.10;101751.50;5001397;28;20033;-71
2023/05/02 00:27:08;;;;;;;4.85;0.90;;;;;;;7.24;57.92;101755.69;5002248;28;20061;-72
2023/05/02 00:29:34;;;;;;;5.85;1.38;;;;;;;7.05;58.37;101764.59;4984244;28;20152;-72
2023/05/02 00:32:00;;;;;;;5.18;1.52;;;;;;;6.80;58.88;101766.59;4999130;28;20416;-72
2023/05/02 00:34:30;;;;;;;11.45;1.98;;;;;;;6.97;58.13;101771.59;4999678;28;20079;-73
2023/05/02 00:36:56;;;;;;;11.43;2.20;;;;;;;6.68;58.49;101776.19;4984126;28;20051;-73
2023/05/02 00:39:22;;;;;;;12.73;2.13;;;;;;;7.00;58.01;101774.16;4998989;28;20482;-73
2023/05/02 00:41:47;;;;;;;7.93;1.95;;;;;;;7.06;57.08;101780.16;5003644;28;20048;-76
2023/05/02 00:44:13;;;;;;;5.82;2.05;;;;;;;7.15;56.39;101776.59;5002131;28;20033;-77
2023/05/02 00:46:39;;;;;;;8.32;1.88;;;;;;;6.99;57.00;101777.66;4985368;28;20079;-77
2023/05/02 00:49:04;;;;;;;9.40;1.38;;;;;;;7.08;56.29;101781.00;5021209;28;20040;-77
2023/05/02 00:51:32;;;;;;;5.85;1.70;;;;;;;7.05;56.31;101788.00;5023006;28;20465;-76
2023/05/02 00:54:00;;;;;;;11.98;1.65;;;;;;;6.73;56.72;101783.97;4997807;28;20153;-75
2023/05/02 00:56:26;;;;;;;12.95;2.05;;;;;;;6.82;56.32;101783.91;4996321;28;20044;-72
2023/05/02 00:58:53;;;;;;;6.03;1.30;;;;;;;6.41;57.12;101787.69;5005355;28;20038;-79
2023/05/02 01:01:42;;;;;;;8.73;1.35;;;;;;;6.36;55.77;101788.63;5009997;28;20052;-75
2023/05/02 01:04:15;;;;;;;6.63;1.65;;;;;;;6.71;55.24;101793.53;5006000;28;20037;-72
2023/05/02 01:06:40;;;;;;;10.23;2.35;;;;;;;6.77;54.24;101801.25;5012497;28;20119;-73
2023/05/02 01:09:21;;;;;;;8.27;1.88;;;;;;;6.70;54.98;101805.63;5016949;28;20489;-74
2023/05/02 01:12:04;;;;;;;8.35;1.05;;;;;;;6.88;54.05;101804.59;5025672;28;20461;-79
2023/05/02 01:14:36;;;;;;;4.15;1.15;;;;;;;6.59;54.32;101798.81;5033569;28;20051;-78
2023/05/02 01:17:04;;;;;;;;;;;;;;;6.54;54.80;101803.19;5033634;28;20036;-77
2023/05/02 01:19:35;;;;;;;8.05;0.70;;;;;;;6.69;53.78;101803.06;5036899;28;19913;-73
2023/05/02 01:22:06;;;;;;;6.95;0.77;;;;;;;6.47;53.48;101810.19;5010130;28;20037;-74
2023/05/02 01:24:47;;;;;;;5.55;0.52;;;;;;;6.18;54.10;101806.00;5019626;28;20561;-74
2023/05/02 01:27:47;;;;;;;8.98;1.02;;;;;;;6.22;53.40;101809.47;5003474;28;20308;-74
2023/05/02 01:30:16;;;;;;;10.60;1.00;;;;;;;6.37;52.64;101811.97;5019203;28;20029;-76
2023/05/02 01:32:45;;;;;;;8.90;1.30;;;;;;;6.38;52.53;101823.22;5020671;28;20044;-74
2023/05/02 01:35:14;;;;;;;12.30;1.58;;;;;;;6.23;52.71;101818.97;5006064;28;20028;-74
2023/05/02 01:37:43;;;;;;;16.60;2.35;;;;;;;6.63;51.69;101827.34;5012510;28;20045;-77
2023/05/02 01:40:12;;;;;;;20.88;2.38;;;;;;;6.27;51.97;101825.88;5020302;28;20033;-75
2023/05/02 01:42:39;;;;;;;7.63;1.60;;;;;;;5.98;53.02;101839.88;4997808;28;20040;-75
2023/05/02 01:45:07;;;;;;;11.55;2.30;;;;;;;5.89;52.77;101834.75;5003288;28;20033;-75
2023/05/02 01:47:35;;;;;;;5.53;1.48;;;;;;;6.07;52.47;101839.81;4977731;28;20050;-72
2023/05/02 01:50:07;;;;;;;16.23;2.33;;;;;;;6.23;51.85;101850.13;5001615;28;20120;-75
2023/05/02 01:52:34;;;;;;;14.80;2.85;;;;;;;6.18;51.75;101854.50;4980443;28;20060;-76
2023/05/02 01:55:00;;;;;;;12.10;1.70;;;;;;;6.08;51.46;101856.25;5005000;28;20033;-75
2023/05/02 01:57:26;;;;;;;9.23;2.20;;;;;;;5.79;51.73;101857.28;5003229;28;20168;-71
2023/05/02 01:59:55;;;;;;;15.85;2.75;;;;;;;5.87;51.02;101867.63;4981168;28;20033;-73
2023/05/02 02:02:25;;;;;;;11.02;1.70;;;;;;;5.72;51.49;101878.03;4998542;28;20052;-72
2023/05/02 02:04:53;;;;;;;11.55;2.38;;;;;;;5.91;51.12;101881.44;5003285;28;20128;-71
2023/05/02 02:07:19;;;;;;;14.40;1.65;;;;;;;6.05;50.12;101880.50;4983976;28;20058;-72
2023/05/02 02:09:45;;;;;;;23.73;2.50;;;;;;;5.63;51.39;101884.13;5034709;28;20040;-73
2023/05/02 02:12:19;;;;;;;16.90;2.22;;;;;;;6.14;49.38;101886.53;4979899;28;20576;-72
2023/05/02 02:15:09;;;;;;;12.02;2.00;;;;;;;5.56;50.12;101898.00;4990742;28;20033;-73
2023/05/02 02:18:00;;;;;;;10.55;1.38;;;;;;;5.65;49.45;101893.63;4998788;28;20052;-74
2023/05/02 02:20:29;;;;;;;11.93;1.83;;;;;;;5.86;49.15;101897.03;4998884;28;20072;-79
2023/05/02 02:22:56;;;;;;;5.35;1.77;;;;;;;5.72;49.69;101894.47;5009313;28;20068;-83
2023/05/02 02:25:23;;;;;;;16.90;2.28;;;;;;;5.82;49.05;101910.88;4996984;28;20096;-81
2023/05/02 02:27:49;;;;;;;8.68;2.15;;;;;;;5.65;49.04;101906.59;5007942;28;20668;-83
2023/05/02 02:30:15;;;;;;;15.27;1.95;;;;;;;5.55;49.22;101907.50;4986726;28;20038;-78
2023/05/02 02:32:41;;;;;;;10.48;1.67;;;;;;;5.67;48.92;101916.97;5002082;28;20548;-75
2023/05/02 02:35:07;;;;;;;10.05;2.47;;;;;;;5.84;48.29;101916.94;4979090;28;20688;-76
2023/05/02 02:37:38;;;;;;;5.93;1.05;;;;;;;5.72;48.25;101930.78;4997978;28;20124;-76
2023/05/02 02:40:06;;;;;;;10.98;1.63;;;;;;;5.67;48.01;101935.13;4985512;28;20226;-77
2023/05/02 02:42:50;;;;;;;17.88;2.10;;;;;;;5.75;47.51;101935.09;5002343;28;20061;-76
2023/05/02 02:45:25;;;;;;;7.80;1.92;;;;;;;5.69;47.62;101937.72;5007749;28;20037;-80
2023/05/02 02:48:10;;;;;;;6.22;1.15;;;;;;;5.87;47.63;101935.94;5005034;28;20314;-79
2023/05/02 02:50:57;;;;;;;5.43;1.15;;;;;;;5.78;48.01;101942.88;4978107;28;20041;-78
2023/05/02 02:53:50;;;;;;;10.80;1.23;;;;;;;5.91;47.65;101941.13;4995818;28;20037;-75
2023/05/02 02:56:27;;;;;;;15.13;2.53;;;;;;;5.59;48.31;101955.91;4976248;28;20103;-75
2023/05/02 02:59:14;;;;;;;9.48;1.48;;;;;;;6.08;46.77;101960.97;4996621;28;20041;-72
2023/05/02 03:01:45;;;;;;;15.57;1.85;;;;;;;5.80;46.76;101964.50;4999333;28;20224;-72
2023/05/02 03:04:12;;;;;;;8.60;0.55;;;;;;;5.59;46.72;101966.28;4977129;28;20573;-72
2023/05/02 03:06:38;;;;;;;10.52;0.90;;;;;;;5.80;46.07;101969.69;4983255;28;20203;-72
2023/05/02 03:09:04;;;;;;;15.45;1.33;;;;;;;5.66;46.63;101972.31;4982461;28;20029;-72
2023/05/02 03:11:30;;;;;;;4.82;1.02;;;;;;;5.22;47.51;101971.50;4999105;28;20041;-72
2023/05/02 03:13:57;;;;;;;10.77;1.25;;;;;;;5.77;46.47;101977.47;5016762;28;20685;-73
2023/05/02 03:16:37;;;;;;;11.32;1.58;;;;;;;5.65;46.73;101981.81;5015434;28;20332;-72
2023/05/02 03:19:07;;;;;;;14.30;1.48;;;;;;;5.70;47.10;101988.72;4987767;28;20041;-72
2023/05/02 03:21:34;;;;;;;14.18;1.48;;;;;;;5.56;46.99;101991.34;5019504;28;20060;-72
2023/05/02 03:24:06;;;;;;;9.60;1.63;;;;;;;5.55;46.82;101990.50;4982209;28;20114;-73
2023/05/02 03:26:31;;;;;;;4.43;0.82;;;;;;;5.31;47.57;101990.50;5002855;28;20570;-72
2023/05/02 03:28:59;;;;;;;7.00;1.55;;;;;;;5.10;47.63;101993.94;5004324;28;20128;-72
2023/05/02 03:31:30;;;;;;;12.10;1.70;;;;;;;5.58;47.24;101995.66;5001922;28;20034;-72
2023/05/02 03:33:55;;;;;;;13.63;1.33;;;;;;;5.60;47.41;102003.44;5002400;28;20076;-72
2023/05/02 03:36:21;;;;;;;9.90;1.55;;;;;;;5.63;46.93;102008.63;4994289;28;20033;-73
2023/05/02 03:38:48;;;;;;;9.98;1.38;;;;;;;5.39;47.12;102010.38;4999979;28;20710;-72
2023/05/02 03:41:15;;;;;;;7.38;3.58;;;;;;;5.64;46.93;102021.59;5000228;28;20076;-71
2023/05/02 03:43:41;;;;;;;7.28;1.48;;;;;;;5.42;47.09;102019.88;5000577;28;20371;-71
2023/05/02 03:46:10;;;;;;;7.05;1.85;;;;;;;5.60;46.23;102019.88;4984379;28;20036;-70
2023/05/02 03:48:38;;;;;;;7.15;1.52;;;;;;;5.74;45.23;102026.78;4999105;28;20288;-70
2023/05/02 03:51:05;;;;;;;10.77;1.33;;;;;;;5.84;44.96;102028.50;5021402;28;20033;-72
2023/05/02 03:53:37;;;;;;;6.95;0.90;;;;;;;5.84;44.99;102028.50;5032057;28;20120;-72
2023/05/02 03:56:03;;;;;;;4.78;1.13;;;;;;;5.48;45.96;102040.63;5018200;28;20160;-72
2023/05/02 03:58:40;;;;;;;10.63;1.48;;;;;;;5.54;46.08;102039.75;5017682;28;20047;-72
2023/05/02 04:01:13;;;;;;;12.63;1.45;;;;;;;5.55;46.29;102047.53;5004860;28;20121;-72
2023/05/02 04:03:40;;;;;;;12.05;1.63;;;;;;;5.39;46.18;102048.38;5017633;28;20413;-70
2023/05/02 04:06:08;;;;;;;5.68;1.50;;;;;;;5.53;45.94;102053.59;5018698;28;20017;-72
2023/05/02 04:08:34;;;;;;;4.30;1.67;;;;;;;5.50;45.99;102054.44;4999346;28;20037;-73
2023/05/02 04:11:00;;;;;;;10.15;1.60;;;;;;;5.57;45.61;102061.38;5022497;28;20036;-72
2023/05/02 04:13:27;;;;;;;19.35;1.52;;;;;;;5.00;46.29;102068.22;5017607;28;21569;-73
2023/05/02 04:15:55;;;;;;;9.68;1.60;;;;;;;5.40;45.14;102071.72;5003034;28;20147;-73
2023/05/02 04:18:22;;;;;;;8.65;1.15;;;;;;;5.45;44.93;102071.75;5016282;28;20063;-71
2023/05/02 04:20:49;;;;;;;9.50;1.02;;;;;;;4.84;46.04;102072.47;5001189;28;20123;-72
2023/05/02 04:23:17;;;;;;;13.93;1.95;;;;;;;5.09;44.62;102073.41;5004116;28;20033;-72
2023/05/02 04:25:55;;;;;;;9.40;1.65;;;;;;;5.19;43.68;102082.06;4995580;28;20049;-73
2023/05/02 04:28:26;;;;;;;8.13;1.05;;;;;;;5.22;43.84;102090.72;4994856;28;20107;-75
2023/05/02 04:30:52;;;;;;;7.18;2.20;;;;;;;5.30;44.09;102089.88;4995134;28;21737;-77
2023/05/02 04:33:21;;;;;;;12.43;2.30;;;;;;;4.95;43.87;102093.25;4981207;28;20041;-72
2023/05/02 04:35:47;;;;;;;10.90;1.15;;;;;;;5.16;43.06;102095.88;4994934;28;20036;-71
2023/05/02 04:38:15;;;;;;;20.05;1.58;;;;;;;4.87;42.60;102094.91;4998378;28;20509;-71
2023/05/02 04:40:42;;;;;;;5.72;2.10;;;;;;;4.91;42.76;102107.06;4997935;28;20037;-70
2023/05/02 04:43:08;;;;;;;8.65;1.48;;;;;;;4.97;42.47;102107.09;4987650;28;20072;-70
2023/05/02 04:45:46;;;;;;;5.90;0.60;;;;;;;4.96;42.68;102108.78;4999836;28;20029;-71
2023/05/02 04:48:20;;;;;;;4.13;0.93;;;;;;;4.98;41.79;102106.22;4993752;28;20291;-71
2023/05/02 04:50:46;;;;;;;14.65;2.03;;;;;;;4.87;41.69;102115.66;4998158;28;20103;-71
2023/05/02 04:53:11;;;;;;;10.93;1.10;;;;;;;4.96;41.49;102124.34;4989576;28;20536;-70
2023/05/02 04:55:37;;;;;;;9.15;1.92;;;;;;;4.91;41.14;102132.97;4996596;28;20048;-71
2023/05/02 04:58:04;;;;;;;6.18;0.82;;;;;;;4.91;40.64;102133.81;4998335;28;20048;-70
2023/05/02 05:00:30;;;;;;;8.68;1.30;;;;;;;4.72;40.69;102135.44;4981612;28;21343;-70
2023/05/02 05:02:56;;;;;;;3.13;0.60;;;;;;;4.95;40.44;102142.50;4997974;28;20041;-71
2023/05/02 05:05:21;;;;;;;3.85;0.98;;;;;;;5.11;40.61;102144.25;5013891;28;20514;-71
2023/05/02 05:07:48;;;;;;;7.25;1.67;;;;;;;4.79;40.59;102147.56;4999035;28;21023;-71
2023/05/02 05:10:15;;;;;;;4.63;0.50;;;;;;;5.03;39.38;102148.53;4998883;28;20044;-71
2023/05/02 05:12:45;;;;;;;9.10;1.02;;;;;;;4.94;38.81;102156.28;4984087;28;20049;-71
2023/05/02 05:15:11;;;;;;;11.68;0.70;;;;;;;4.73;38.31;102157.91;5000092;28;20029;-70
2023/05/02 05:17:38;;;;;;;7.25;0.70;;;;;;;4.99;38.25;102155.47;4996958;28;20037;-70
2023/05/02 05:20:09;;;;;;;6.57;0.77;;;;;;;5.08;37.91;102161.50;4999289;28;20095;-70
2023/05/02 05:22:38;;;;;;;8.37;0.77;;;;;;;5.29;37.34;102166.78;4991181;28;20153;-70
2023/05/02 05:25:05;;;;;;;9.38;0.95;;;;;;;5.39;37.44;102170.25;4998974;28;20083;-70
2023/05/02 05:27:33;;;;;;;6.40;0.95;;;;;;;5.34;37.43;102171.97;4982322;28;20057;-74
2023/05/02 05:29:59;;;;;;;2.42;0.82;;;;;;;5.42;37.97;102165.09;5017994;28;20074;-74
2023/05/02 05:32:25;;;;;;;18.02;1.38;;;;;;;5.16;38.16;102167.59;4997830;28;20050;-71
2023/05/02 05:34:52;;;;;;;7.57;0.70;;;;;;;5.53;37.91;102168.56;5000128;28;20499;-71
2023/05/02 05:37:21;;;;;;;4.97;1.10;;;;;;;5.38;38.24;102184.09;4995499;28;20184;-71
2023/05/02 05:39:47;;;;;;;5.22;0.70;;;;;;;5.04;38.89;102194.34;5010784;28;20076;-72
2023/05/02 05:42:13;;;;;;;7.45;1.23;;;;;;;5.10;38.81;102190.91;5000582;28;20569;-72
2023/05/02 05:44:40;;;;;;;4.43;0.93;;;;;;;5.30;38.28;102196.16;5000087;28;20099;-70
2023/05/02 05:47:06;;;;;;;5.95;0.73;;;;;;;4.62;39.20;102196.69;4985602;28;20025;-69
2023/05/02 05:49:31;;;;;;;10.55;1.27;;;;;;;4.85;37.93;102193.34;4998191;28;20057;-70
2023/05/02 05:51:57;;;;;;;4.45;1.30;;;;;;;5.40;37.63;102210.88;4997325;28;20152;-70
2023/05/02 05:54:23;;;;;;;8.10;0.90;;;;;;;5.15;37.35;102202.16;4979775;28;20037;-69
2023/05/02 05:56:48;;;;;;;8.57;0.60;;;;;;;5.19;36.85;102203.88;5001305;28;20068;-69
2023/05/02 05:59:17;;;;;;;11.43;1.20;;;;;;;5.70;36.90;102210.09;4996628;28;20538;-69
2023/05/02 06:01:42;;;;;;;4.70;1.55;;;;;;;5.80;36.85;102213.56;4997484;28;20175;-71
2023/05/02 06:04:08;;;;;;;8.90;1.67;;;;;;;5.66;36.58;102222.19;4982502;28;20129;-71
2023/05/02 06:06:38;;;;;;;3.97;0.52;;;;;;;5.70;36.91;102217.88;4996502;28;20099;-71
2023/05/02 06:09:03;;;;;;;5.25;1.10;;;;;;;5.71;36.46;102226.53;5016771;28;20044;-70
2023/05/02 06:11:30;;;;;;;8.93;0.63;;;;;;;6.24;35.83;102220.53;5018895;28;20036;-71
2023/05/02 06:13:56;;;;;;;7.45;1.02;;;;;;;6.53;35.73;102222.25;4996123;28;20068;-71
2023/05/02 06:16:22;;;;;;;1.58;0.43;;;;;;;6.53;35.73;102219.66;5001200;28;20198;-73
2023/05/02 06:18:51;;;;;;;5.30;0.80;;;;;;;6.55;35.93;102226.59;4998622;28;20033;-69
2023/05/02 06:21:16;;;;;;;7.25;0.73;;;;;;;6.56;35.93;102222.25;5001946;28;20030;-69
2023/05/02 06:23:42;;;;;;;9.73;1.08;;;;;;;6.66;35.58;102229.16;4981687;28;20170;-69
2023/05/02 06:26:08;;;;;;;6.00;0.77;;;;;;;6.67;35.73;102233.50;5002228;28;20133;-70
2023/05/02 06:28:34;;;;;;;1.98;0.63;;;;;;;5.86;37.03;102244.72;4996770;28;22406;-71
2023/05/02 06:31:02;;;;;;;7.57;0.98;;;;;;;6.20;36.84;102239.56;4989433;28;20137;-68
2023/05/02 06:33:28;;;;;;;4.10;0.55;;;;;;;6.19;38.75;102253.41;5010885;28;20120;-68
2023/05/02 06:35:54;;;;;;;7.85;1.67;;;;;;;6.23;39.60;102249.94;4981189;28;20052;-68
2023/05/02 06:38:20;;;;;;;3.88;1.17;;;;;;;6.26;40.37;102250.81;4986650;28;20046;-68
2023/05/02 06:40:46;;;;;;;5.50;0.80;;;;;;;7.29;37.01;102257.59;4998033;28;20033;-68
2023/05/02 06:43:13;;;;;;;5.78;0.55;;;;;;;7.31;36.42;102261.00;4998666;28;20095;-68
2023/05/02 06:45:39;;;;;;;7.07;0.85;;;;;;;7.11;36.45;102268.91;4997334;28;20036;-69
2023/05/02 06:48:05;;;;;;;5.78;0.57;;;;;;;7.13;36.97;102269.75;5001253;28;20136;-69
2023/05/02 06:50:30;;;;;;;6.15;0.70;;;;;;;7.33;36.34;102278.38;5003958;28;20069;-67
2023/05/02 06:52:55;;;;;;;6.43;1.00;;;;;;;7.12;36.54;102287.09;5003850;28;20132;-69
2023/05/02 06:55:21;;;;;;;2.83;0.50;;;;;;;7.82;35.32;102294.63;5001668;28;20073;-69
2023/05/02 06:57:48;;;;;;;3.70;0.38;;;;;;;7.09;36.48;102292.31;5000824;28;20184;-68
2023/05/02 07:00:16;;;;;;;1.67;0.43;;;;;;;6.43;38.91;102307.97;5007057;28;20033;-69
2023/05/02 07:02:43;;;;;;;1.08;0.10;;;;;;;7.10;38.32;102299.22;5003383;28;20210;-69
2023/05/02 07:05:09;;;;;;;1.60;0.20;;;;;;;7.07;37.68;102308.78;4995830;28;20993;-69
2023/05/02 07:07:34;;;;;;;3.50;0.40;;;;;;;8.13;34.94;102297.91;4990114;28;20052;-69
2023/05/02 07:10:02;;;;;;;4.15;0.45;;;;;;;7.97;34.38;102302.34;5001067;28;20038;-68
2023/05/02 07:12:28;;;;;;;1.67;0.20;;;;;;;7.81;34.79;102308.53;4998008;28;20049;-69
2023/05/02 07:14:53;;;;;;;2.42;0.40;;;;;;;7.81;35.03;102311.13;5002676;28;20099;-69
2023/05/02 07:17:19;;;;;;;1.80;0.13;;;;;;;8.70;34.26;102308.72;4980167;28;20049;-69
2023/05/02 07:19:45;;;;;;;3.00;0.30;;;;;;;8.72;33.66;102316.59;4996009;28;20037;-70
2023/05/02 07:22:10;;;;;;;2.08;0.47;;;;;;;8.49;34.37;102321.94;5000328;28;20071;-69
2023/05/02 07:24:40;;;;;;;3.33;0.40;;;;;;;8.19;34.59;102315.25;4988685;28;20060;-69
2023/05/02 07:27:05;;;;;;;4.20;0.20;;;;;;;8.61;33.91;102326.22;5001925;28;20112;-65
2023/05/02 07:29:31;;;;;;;3.60;0.43;;;;;;;9.85;32.41;102324.00;4993062;28;20038;-68
2023/05/02 07:31:56;;;;;;;7.38;1.48;;;;;;;10.64;31.60;102322.78;4997051;28;20045;-67
2023/05/02 07:34:22;;;;;;;2.65;0.17;;;;;;;11.86;29.12;102318.66;4983053;28;20047;-68
2023/05/02 07:36:48;;;;;;;1.90;0.38;;;;;;;12.46;28.76;102325.13;4997744;28;20573;-67
2023/05/02 07:39:14;;;;;;;1.00;0.20;;;;;;;11.61;30.00;102313.06;4998668;28;20517;-69
2023/05/02 07:41:39;;;;;;;1.80;0.85;;;;;;;9.44;32.56;102336.69;4996560;28;20033;-69
2023/05/02 07:44:05;;;;;;;5.35;0.30;;;;;;;8.56;33.86;102341.84;4999118;28;20111;-69
2023/05/02 07:46:30;;;;;;;1.60;0.15;;;;;;;8.68;35.19;102346.13;4999099;28;20068;-69
2023/05/02 07:48:56;;;;;;;9.18;0.50;;;;;;;8.29;35.89;102358.56;5000654;28;20445;-68
2023/05/02 07:51:22;;;;;;;10.93;1.45;;;;;;;7.95;35.93;102356.16;4999116;28;20047;-71
2023/05/02 07:53:53;;;;;;;0.47;0.20;;;;;;;7.26;35.94;102354.66;4998128;28;20037;-70
2023/05/02 07:56:18;;;;;;;2.20;0.23;;;;;;;10.21;31.23;102353.94;4999208;28;20469;-69
2023/05/02 07:58:44;;;;;;;2.65;0.20;;;;;;;12.01;28.78;102348.91;4980996;28;20820;-69
2023/05/02 08:01:09;;;;;;;1.77;0.10;;;;;;;14.30;25.10;102344.44;4998943;28;20463;-69
2023/05/02 08:03:34;;;;;;;3.10;0.50;;;;;;;15.29;23.83;102347.25;4980085;28;20046;-70
2023/05/02 08:06:00;;;;;;;2.25;0.40;;;;;;;16.42;23.11;102347.28;5000277;28;20071;-70
2023/05/02 08:08:26;;;;;;;1.73;0.20;;;;;;;16.04;23.41;102341.78;4999040;28;20105;-69
2023/05/02 08:10:52;;;;;;;3.15;0.35;;;;;;;11.73;29.96;102360.84;4999979;28;20083;-68
2023/05/02 08:13:18;;;;;;;1.35;0.20;;;;;;;10.84;31.23;102373.91;4997415;28;20045;-70
2023/05/02 08:15:43;;;;;;;2.60;0.65;;;;;;;8.66;34.45;102371.34;5000305;28;20057;-69
2023/05/02 08:18:09;;;;;;;1.92;0.50;;;;;;;8.41;35.95;102379.34;5000690;28;20608;-69
2023/05/02 08:20:35;;;;;;;3.75;0.52;;;;;;;8.14;36.23;102383.84;4997153;28;20045;-69
2023/05/02 08:23:00;;;;;;;1.90;0.50;;;;;;;8.79;35.29;102382.56;4999855;28;20615;-69
2023/05/02 08:25:26;;;;;;;2.92;0.10;;;;;;;9.26;33.04;102382.09;4998325;28;20525;-68
2023/05/02 08:27:51;;;;;;;0.40;0.15;;;;;;;10.02;32.22;102389.94;4998434;28;20068;-69
2023/05/02 08:30:17;;;;;;;1.95;0.25;;;;;;;11.44;30.79;102388.50;4992017;28;20037;-69
2023/05/02 08:32:42;;;;;;;4.43;0.95;;;;;;;12.98;28.70;102393.81;4980468;28;20056;-69
2023/05/02 08:35:08;;;;;;;3.25;0.47;;;;;;;12.84;28.08;102388.91;4996070;28;20057;-69
2023/05/02 08:37:35;;;;;;;7.05;0.50;;;;;;;14.49;26.44;102400.00;4992018;28;20072;-69
2023/05/02 08:40:00;;;;;;;1.90;0.20;;;;;;;13.73;26.71;102406.66;5001863;28;20099;-69
2023/05/02 08:42:27;;;;;;;0.95;0.10;;;;;;;13.78;26.54;102394.25;4995671;28;20156;-69
2023/05/02 08:44:53;;;;;;;2.72;0.10;;;;;;;14.62;26.23;102401.31;4999295;28;20041;-69
2023/05/02 08:47:20;;;;;;;2.47;0.40;;;;;;;14.94;25.40;102415.16;5001357;28;20088;-69
2023/05/02 08:49:47;;;;;;;2.63;0.20;;;;;;;15.71;25.26;102407.19;5001368;28;20041;-70
2023/05/02 08:52:14;;;;;;;0.55;0.40;;;;;;;14.68;25.48;102416.03;4997886;28;20356;-69
2023/05/02 08:54:40;;;;;;;6.05;0.30;;;;;;;13.87;26.42;102409.72;4999211;28;20044;-69
2023/05/02 08:57:06;;;;;;;4.57;0.10;;;;;;;14.84;28.04;102395.34;4999716;28;20030;-69
2023/05/02 08:59:32;;;;;;;0.60;0.10;;;;;;;14.85;26.84;102404.94;4999945;28;20038;-69
2023/05/02 09:02:17;;;;;;;1.92;0.20;;;;;;;12.75;26.84;102401.41;5012344;28;20033;-69
2023/05/02 09:04:44;;;;;;;1.23;0.15;;;;;;;11.42;28.96;102417.34;5000761;28;20182;-69
2023/05/02 09:07:10;;;;;;;0.57;0.10;;;;;;;10.99;29.79;102414.63;5001681;28;20063;-69
2023/05/02 09:09:36;;;;;;;1.88;0.10;;;;;;;10.59;30.44;102413.50;4997456;28;20495;-69
2023/05/02 09:12:02;;;;;;;1.80;0.30;;;;;;;11.15;30.38;102407.38;5000724;28;20061;-69
2023/05/02 09:14:28;;;;;;;1.23;0.22;;;;;;;11.59;29.78;102403.03;4982781;28;20561;-69
2023/05/02 09:16:59;;;;;;;4.97;0.73;;;;;;;11.45;30.43;102416.41;4998170;28;20035;-70
2023/05/02 09:19:25;;;;;;;2.05;0.20;;;;;;;10.87;30.43;102420.06;5000326;28;20049;-69
2023/05/02 09:21:51;;;;;;;1.55;0.20;;;;;;;10.47;30.59;102431.97;4997089;28;20634;-69
2023/05/02 09:24:19;;;;;;;1.50;0.40;;;;;;;10.36;31.49;102431.28;4981993;28;20052;-69
2023/05/02 09:26:57;;;;;;;2.38;0.20;;;;;;;11.24;30.87;102429.00;5015476;28;20380;-69
2023/05/02 09:29:23;;;;;;;4.57;0.35;;;;;;;10.75;31.75;102435.06;5000701;28;20053;-69
2023/05/02 09:31:48;;;;;;;6.20;0.40;;;;;;;10.34;32.37;102453.94;4998123;28;20757;-69
2023/05/02 09:34:17;;;;;;;8.18;0.30;;;;;;;9.76;33.52;102452.91;5020264;28;20037;-69
2023/05/02 09:36:49;;;;;;;6.53;0.70;;;;;;;9.27;33.37;102461.25;5020482;28;20025;-70
2023/05/02 09:39:17;;;;;;;2.90;0.40;;;;;;;9.08;33.66;102460.56;5020224;28;20037;-69
2023/05/02 09:41:45;;;;;;;3.70;0.73;;;;;;;9.07;33.94;102459.66;5019426;28;20141;-69
2023/05/02 09:44:17;;;;;;;4.85;0.32;;;;;;;9.11;34.51;102465.72;5020301;28;20493;-70
2023/05/02 09:46:45;;;;;;;10.23;0.80;;;;;;;10.62;32.88;102460.50;5019197;28;20037;-69
2023/05/02 09:49:11;;;;;;;3.08;0.20;;;;;;;10.90;31.80;102457.50;5010344;28;20446;-69
2023/05/02 09:51:37;;;;;;;1.30;0.20;;;;;;;10.89;31.77;102458.41;5019390;28;20032;-69
2023/05/02 09:54:02;;;;;;;3.85;0.20;;;;;;;11.35;31.10;102461.97;5019616;28;20073;-69
2023/05/02 09:56:28;;;;;;;7.65;0.82;;;;;;;11.02;31.68;102474.75;5014969;28;20557;-69
2023/05/02 09:59:14;;;;;;;5.25;0.30;;;;;;;12.09;31.99;102461.44;5019519;28;20052;-69
2023/05/02 10:01:41;;;;;;;2.60;0.20;;;;;;;11.97;29.61;102464.31;5015663;28;20471;-69
2023/05/02 10:04:17;;;;;;;2.30;0.65;;;;;;;11.68;30.31;102463.09;5021235;28;20045;-70
2023/05/02 10:06:44;;;;;;;3.22;0.40;;;;;;;10.83;31.54;102471.56;5017749;28;20966;-69
2023/05/02 10:09:11;;;;;;;2.15;0.13;;;;;;;10.19;32.12;102476.81;5022211;28;20076;-69
2023/05/02 10:11:43;;;;;;;2.30;0.32;;;;;;;10.22;32.31;102476.75;5017771;28;20025;-69
2023/05/02 10:14:09;;;;;;;2.13;0.15;;;;;;;10.96;33.39;102483.56;5020440;28;20454;-69
2023/05/02 10:16:54;;;;;;;3.40;0.28;;;;;;;9.97;33.41;102475.34;5027543;28;21238;-68
2023/05/02 10:19:25;;;;;;;5.82;0.35;;;;;;;9.81;33.96;102487.69;5002893;28;20669;-69
2023/05/02 10:21:52;;;;;;;3.73;0.20;;;;;;;9.28;34.91;102500.38;4998772;28;20033;-72
2023/05/02 10:24:19;;;;;;;2.35;0.15;;;;;;;9.40;34.90;102494.16;5019603;28;20036;-69
2023/05/02 10:26:47;;;;;;;1.20;0.30;;;;;;;9.17;35.08;102497.84;5016975;28;20037;-69
2023/05/02 10:29:12;;;;;;;8.70;0.45;;;;;;;9.78;33.41;102500.75;5021773;28;20041;-69
2023/05/02 10:31:59;;;;;;;3.38;0.38;;;;;;;10.26;31.25;102497.59;5018727;28;20497;-68
2023/05/02 10:34:31;;;;;;;1.13;0.10;;;;;;;10.53;31.40;102507.72;5003669;28;20049;-69
2023/05/02 10:37:00;;;;;;;1.80;0.10;;;;;;;10.45;29.38;102501.72;5013172;28;20024;-69
2023/05/02 10:39:27;;;;;;;0.70;0.10;;;;;;;10.41;29.71;102507.88;4998860;28;20345;-69
2023/05/02 10:41:54;;;;;;;1.42;0.32;;;;;;;10.36;29.91;102515.78;4996759;28;20059;-69
2023/05/02 10:44:36;;;;;;;6.70;0.73;;;;;;;11.83;28.59;102511.75;4997948;28;20064;-71
2023/05/02 10:47:26;;;;;;;1.98;0.25;;;;;;;11.94;28.35;102509.78;5000312;28;20076;-71
2023/05/02 10:50:02;;;;;;;3.08;0.10;;;;;;;11.69;29.29;102525.09;4987793;28;20200;-69
2023/05/02 10:52:36;;;;;;;2.75;0.13;;;;;;;10.61;31.29;102531.97;4988183;28;20172;-69
2023/05/02 10:55:14;;;;;;;1.35;0.10;;;;;;;9.48;34.25;102538.47;4998943;28;20169;-69
2023/05/02 10:57:58;;;;;;;2.72;0.20;;;;;;;9.54;35.20;102548.84;4997595;28;20069;-69
2023/05/02 11:00:26;;;;;;;4.85;0.45;;;;;;;9.68;35.22;102552.22;4999900;28;20045;-70
2023/05/02 11:02:51;;;;;;;2.15;0.10;;;;;;;9.58;35.38;102548.81;4996077;28;20151;-69
2023/05/02 11:05:17;;;;;;;4.80;0.47;;;;;;;10.59;34.11;102545.97;4999454;28;20536;-71
2023/05/02 11:07:43;;;;;;;2.95;0.20;;;;;;;10.92;34.60;102552.50;4999291;28;20056;-68
2023/05/02 11:10:21;;;;;;;0.25;0.05;;;;;;;10.47;32.75;102554.00;5000048;28;20483;-69
2023/05/02 11:12:48;;;;;;;1.17;0.20;;;;;;;10.84;31.54;102555.25;4980313;28;20044;-71
2023/05/02 11:15:37;;;;;;;3.15;0.15;;;;;;;11.16;32.11;102555.66;5002593;28;20044;-71
2023/05/02 11:18:13;;;;;;;4.68;0.40;;;;;;;11.45;32.44;102548.19;4998273;28;20045;-71
2023/05/02 11:20:40;;;;;;;1.25;0.20;;;;;;;12.07;31.09;102552.34;4999396;28;20038;-71
2023/05/02 11:23:15;;;;;;;3.08;0.10;;;;;;;11.45;31.40;102550.78;4998692;28;20048;-69
2023/05/02 11:25:42;;;;;;;2.42;0.20;;;;;;;11.40;31.83;102554.41;4999791;28;20056;-69
2023/05/02 11:28:37;;;;;;;3.88;0.20;;;;;;;10.44;34.84;102557.50;4997976;28;20156;-69
2023/05/02 11:31:28;;;;;;;3.70;0.40;;;;;;;8.85;39.07;102571.13;4997902;28;20037;-70
2023/05/02 11:34:03;;;;;;;3.90;0.10;;;;;;;8.22;42.90;102575.69;4998317;28;20045;-71
2023/05/02 11:36:29;;;;;;;1.55;0.25;;;;;;;7.36;43.85;102578.34;5000141;28;21000;-71